sensor_id;sensor_type;location;lat;lon;timestamp;P1;durP1;ratioP1;P2;durP2;ratioP2
82869;SDS011;72645;47.136;15.420;2024-02-15T00:01:51;5.60;;;2.30;;
82869;SDS011;72645;47.136;15.420;2024-02-15T00:04:22;4.20;;;2.30;;
82869;SDS011;72645;47.136;15.420;2024-02-15T00:06:53;6.00;;;2.60;;
82869;SDS011;72645;47.136;15.420;2024-02-15T00:09:24;3.30;;;2.10;;
82869;SDS011;72645;47.136;15.420;2024-02-15T00:11:55;5.40;;;1.60;;
82869;SDS011;72645;47.136;15.420;2024-02-15T00:14:27;3.60;;;2.20;;
82869;SDS011;72645;47.136;15.420;2024-02-15T00:16:59;8.30;;;2.90;;
82869;SDS011;72645;47.136;15.420;2024-02-15T00:19:30;4.70;;;2.50;;
82869;SDS011;72645;47.136;15.420;2024-02-15T00:22:02;3.70;;;1.60;;
82869;SDS011;72645;47.136;15.420;2024-02-15T00:24:33;3.80;;;1.30;;
82869;SDS011;72645;47.136;15.420;2024-02-15T00:27:07;6.10;;;2.10;;
82869;SDS011;72645;47.136;15.420;2024-02-15T00:29:39;4.70;;;2.20;;
82869;SDS011;72645;47.136;15.420;2024-02-15T00:32:10;3.80;;;2.20;;
82869;SDS011;72645;47.136;15.420;2024-02-15T00:34:42;4.30;;;1.80;;
82869;SDS011;72645;47.136;15.420;2024-02-15T00:37:15;4.90;;;2.30;;
82869;SDS011;72645;47.136;15.420;2024-02-15T00:39:46;7.60;;;2.50;;
82869;SDS011;72645;47.136;15.420;2024-02-15T00:42:17;7.80;;;3.10;;
82869;SDS011;72645;47.136;15.420;2024-02-15T00:44:48;4.40;;;2.00;;
82869;SDS011;72645;47.136;15.420;2024-02-15T00:47:19;5.80;;;2.50;;
82869;SDS011;72645;47.136;15.420;2024-02-15T00:49:51;4.40;;;2.00;;
82869;SDS011;72645;47.136;15.420;2024-02-15T00:52:22;4.80;;;2.70;;
82869;SDS011;72645;47.136;15.420;2024-02-15T00:54:53;6.80;;;2.80;;
82869;SDS011;72645;47.136;15.420;2024-02-15T00:57:24;16.30;;;5.20;;
82869;SDS011;72645;47.136;15.420;2024-02-15T00:59:55;23.20;;;6.70;;
82869;SDS011;72645;47.136;15.420;2024-02-15T01:02:26;15.10;;;5.40;;
82869;SDS011;72645;47.136;15.420;2024-02-15T01:04:57;17.40;;;5.90;;
82869;SDS011;72645;47.136;15.420;2024-02-15T01:07:28;9.40;;;3.20;;
82869;SDS011;72645;47.136;15.420;2024-02-15T01:09:59;16.80;;;6.20;;
82869;SDS011;72645;47.136;15.420;2024-02-15T01:12:31;11.40;;;4.30;;
82869;SDS011;72645;47.136;15.420;2024-02-15T01:15:02;5.90;;;2.20;;
82869;SDS011;72645;47.136;15.420;2024-02-15T01:17:34;4.50;;;1.50;;
82869;SDS011;72645;47.136;15.420;2024-02-15T01:20:06;5.90;;;2.00;;
82869;SDS011;72645;47.136;15.420;2024-02-15T01:22:38;3.70;;;1.80;;
82869;SDS011;72645;47.136;15.420;2024-02-15T01:25:09;5.10;;;1.90;;
82869;SDS011;72645;47.136;15.420;2024-02-15T01:27:40;4.20;;;2.60;;
82869;SDS011;72645;47.136;15.420;2024-02-15T01:30:11;4.80;;;2.20;;
82869;SDS011;72645;47.136;15.420;2024-02-15T01:32:43;3.20;;;1.30;;
82869;SDS011;72645;47.136;15.420;2024-02-15T01:35:14;5.10;;;1.40;;
82869;SDS011;72645;47.136;15.420;2024-02-15T01:37:45;3.90;;;1.70;;
82869;SDS011;72645;47.136;15.420;2024-02-15T01:40:16;2.60;;;1.60;;
82869;SDS011;72645;47.136;15.420;2024-02-15T01:42:47;3.60;;;2.20;;
82869;SDS011;72645;47.136;15.420;2024-02-15T01:45:18;3.40;;;2.10;;
82869;SDS011;72645;47.136;15.420;2024-02-15T01:47:49;4.70;;;2.40;;
82869;SDS011;72645;47.136;15.420;2024-02-15T01:50:21;3.60;;;1.90;;
82869;SDS011;72645;47.136;15.420;2024-02-15T01:52:54;5.00;;;1.90;;
82869;SDS011;72645;47.136;15.420;2024-02-15T01:55:27;5.70;;;2.40;;
82869;SDS011;72645;47.136;15.420;2024-02-15T01:57:58;3.70;;;2.00;;
82869;SDS011;72645;47.136;15.420;2024-02-15T02:00:29;4.20;;;1.40;;
82869;SDS011;72645;47.136;15.420;2024-02-15T02:03:00;4.50;;;2.30;;
82869;SDS011;72645;47.136;15.420;2024-02-15T02:05:34;5.00;;;1.70;;
82869;SDS011;72645;47.136;15.420;2024-02-15T02:08:06;2.50;;;1.40;;
82869;SDS011;72645;47.136;15.420;2024-02-15T02:10:37;3.00;;;1.60;;
82869;SDS011;72645;47.136;15.420;2024-02-15T02:13:09;4.60;;;1.40;;
82869;SDS011;72645;47.136;15.420;2024-02-15T02:15:40;4.10;;;1.30;;
82869;SDS011;72645;47.136;15.420;2024-02-15T02:18:12;3.20;;;1.40;;
82869;SDS011;72645;47.136;15.420;2024-02-15T02:20:44;3.40;;;1.60;;
82869;SDS011;72645;47.136;15.420;2024-02-15T02:23:16;2.40;;;0.60;;
82869;SDS011;72645;47.136;15.420;2024-02-15T02:25:51;2.20;;;1.10;;
82869;SDS011;72645;47.136;15.420;2024-02-15T02:28:23;2.10;;;1.10;;
82869;SDS011;72645;47.136;15.420;2024-02-15T02:30:54;2.10;;;1.20;;
82869;SDS011;72645;47.136;15.420;2024-02-15T02:33:25;3.60;;;1.10;;
82869;SDS011;72645;47.136;15.420;2024-02-15T02:35:57;3.00;;;1.10;;
82869;SDS011;72645;47.136;15.420;2024-02-15T02:38:28;3.90;;;1.70;;
82869;SDS011;72645;47.136;15.420;2024-02-15T02:40:59;1.60;;;1.10;;
82869;SDS011;72645;47.136;15.420;2024-02-15T02:43:30;1.50;;;1.20;;
82869;SDS011;72645;47.136;15.420;2024-02-15T02:46:02;1.40;;;1.10;;
82869;SDS011;72645;47.136;15.420;2024-02-15T02:48:33;1.70;;;1.00;;
82869;SDS011;72645;47.136;15.420;2024-02-15T02:51:06;3.00;;;0.90;;
82869;SDS011;72645;47.136;15.420;2024-02-15T02:53:37;2.80;;;1.50;;
82869;SDS011;72645;47.136;15.420;2024-02-15T02:56:08;3.00;;;1.80;;
82869;SDS011;72645;47.136;15.420;2024-02-15T02:58:40;3.80;;;0.90;;
82869;SDS011;72645;47.136;15.420;2024-02-15T03:01:11;3.10;;;1.40;;
82869;SDS011;72645;47.136;15.420;2024-02-15T03:03:42;1.50;;;0.90;;
82869;SDS011;72645;47.136;15.420;2024-02-15T03:06:13;2.20;;;1.40;;
82869;SDS011;72645;47.136;15.420;2024-02-15T03:08:45;2.10;;;1.30;;
82869;SDS011;72645;47.136;15.420;2024-02-15T03:11:18;1.50;;;1.40;;
82869;SDS011;72645;47.136;15.420;2024-02-15T03:13:49;2.60;;;1.10;;
82869;SDS011;72645;47.136;15.420;2024-02-15T03:16:22;3.70;;;1.20;;
82869;SDS011;72645;47.136;15.420;2024-02-15T03:18:55;3.00;;;2.20;;
82869;SDS011;72645;47.136;15.420;2024-02-15T03:21:27;2.90;;;2.20;;
82869;SDS011;72645;47.136;15.420;2024-02-15T03:23:59;2.00;;;1.30;;
82869;SDS011;72645;47.136;15.420;2024-02-15T03:26:31;2.10;;;1.10;;
82869;SDS011;72645;47.136;15.420;2024-02-15T03:29:05;1.50;;;1.00;;
82869;SDS011;72645;47.136;15.420;2024-02-15T03:31:38;2.10;;;1.20;;
82869;SDS011;72645;47.136;15.420;2024-02-15T03:34:08;3.00;;;1.20;;
82869;SDS011;72645;47.136;15.420;2024-02-15T03:36:43;1.60;;;1.30;;
82869;SDS011;72645;47.136;15.420;2024-02-15T03:39:15;1.80;;;1.10;;
82869;SDS011;72645;47.136;15.420;2024-02-15T03:41:46;1.50;;;0.80;;
82869;SDS011;72645;47.136;15.420;2024-02-15T03:44:17;1.50;;;1.20;;
82869;SDS011;72645;47.136;15.420;2024-02-15T03:46:48;1.70;;;1.50;;
82869;SDS011;72645;47.136;15.420;2024-02-15T03:49:19;2.30;;;1.90;;
82869;SDS011;72645;47.136;15.420;2024-02-15T03:51:51;2.40;;;0.80;;
82869;SDS011;72645;47.136;15.420;2024-02-15T03:54:23;1.90;;;1.30;;
82869;SDS011;72645;47.136;15.420;2024-02-15T03:56:54;1.80;;;1.20;;
82869;SDS011;72645;47.136;15.420;2024-02-15T03:59:25;4.50;;;1.20;;
82869;SDS011;72645;47.136;15.420;2024-02-15T04:01:56;1.80;;;1.00;;
82869;SDS011;72645;47.136;15.420;2024-02-15T04:04:27;1.30;;;1.00;;
82869;SDS011;72645;47.136;15.420;2024-02-15T04:06:59;3.90;;;1.30;;
82869;SDS011;72645;47.136;15.420;2024-02-15T04:09:30;1.80;;;1.20;;
82869;SDS011;72645;47.136;15.420;2024-02-15T04:12:04;2.30;;;1.20;;
82869;SDS011;72645;47.136;15.420;2024-02-15T04:14:36;1.90;;;1.70;;
82869;SDS011;72645;47.136;15.420;2024-02-15T04:17:07;2.90;;;1.20;;
82869;SDS011;72645;47.136;15.420;2024-02-15T04:19:38;3.70;;;2.00;;
82869;SDS011;72645;47.136;15.420;2024-02-15T04:22:09;2.50;;;1.50;;
82869;SDS011;72645;47.136;15.420;2024-02-15T04:24:40;1.60;;;1.00;;
82869;SDS011;72645;47.136;15.420;2024-02-15T04:27:11;3.40;;;1.10;;
82869;SDS011;72645;47.136;15.420;2024-02-15T04:29:42;2.90;;;1.10;;
82869;SDS011;72645;47.136;15.420;2024-02-15T04:32:14;3.40;;;1.70;;
82869;SDS011;72645;47.136;15.420;2024-02-15T04:34:47;5.00;;;2.30;;
82869;SDS011;72645;47.136;15.420;2024-02-15T04:37:18;3.70;;;2.20;;
82869;SDS011;72645;47.136;15.420;2024-02-15T04:39:49;3.90;;;1.80;;
82869;SDS011;72645;47.136;15.420;2024-02-15T04:42:20;2.10;;;1.70;;
82869;SDS011;72645;47.136;15.420;2024-02-15T04:44:54;5.40;;;1.40;;
82869;SDS011;72645;47.136;15.420;2024-02-15T04:47:25;2.40;;;1.10;;
82869;SDS011;72645;47.136;15.420;2024-02-15T04:49:58;3.80;;;1.40;;
82869;SDS011;72645;47.136;15.420;2024-02-15T04:52:30;4.00;;;1.80;;
82869;SDS011;72645;47.136;15.420;2024-02-15T04:55:01;2.60;;;2.10;;
82869;SDS011;72645;47.136;15.420;2024-02-15T04:57:33;2.70;;;1.90;;
82869;SDS011;72645;47.136;15.420;2024-02-15T05:00:06;4.50;;;2.30;;
82869;SDS011;72645;47.136;15.420;2024-02-15T05:02:41;5.60;;;2.40;;
82869;SDS011;72645;47.136;15.420;2024-02-15T05:05:13;5.60;;;1.80;;
82869;SDS011;72645;47.136;15.420;2024-02-15T05:07:44;4.40;;;1.60;;
82869;SDS011;72645;47.136;15.420;2024-02-15T05:10:17;3.20;;;1.70;;
82869;SDS011;72645;47.136;15.420;2024-02-15T05:12:50;2.70;;;1.80;;
82869;SDS011;72645;47.136;15.420;2024-02-15T05:15:23;4.40;;;1.80;;
82869;SDS011;72645;47.136;15.420;2024-02-15T05:17:54;3.30;;;1.60;;
82869;SDS011;72645;47.136;15.420;2024-02-15T05:20:25;4.40;;;1.80;;
82869;SDS011;72645;47.136;15.420;2024-02-15T05:22:56;3.20;;;1.40;;
82869;SDS011;72645;47.136;15.420;2024-02-15T05:25:27;8.20;;;1.90;;
82869;SDS011;72645;47.136;15.420;2024-02-15T05:28:00;4.50;;;1.70;;
82869;SDS011;72645;47.136;15.420;2024-02-15T05:30:34;2.20;;;1.70;;
82869;SDS011;72645;47.136;15.420;2024-02-15T05:33:07;2.20;;;1.30;;
82869;SDS011;72645;47.136;15.420;2024-02-15T05:35:38;1.70;;;1.20;;
82869;SDS011;72645;47.136;15.420;2024-02-15T05:38:14;3.70;;;1.50;;
82869;SDS011;72645;47.136;15.420;2024-02-15T05:40:45;2.60;;;1.80;;
82869;SDS011;72645;47.136;15.420;2024-02-15T05:43:16;2.80;;;1.40;;
82869;SDS011;72645;47.136;15.420;2024-02-15T05:45:48;3.20;;;1.50;;
82869;SDS011;72645;47.136;15.420;2024-02-15T05:48:20;4.40;;;2.00;;
82869;SDS011;72645;47.136;15.420;2024-02-15T05:50:51;3.40;;;2.10;;
82869;SDS011;72645;47.136;15.420;2024-02-15T05:53:23;3.10;;;1.50;;
82869;SDS011;72645;47.136;15.420;2024-02-15T05:55:54;2.30;;;1.40;;
82869;SDS011;72645;47.136;15.420;2024-02-15T05:58:26;4.40;;;2.60;;
82869;SDS011;72645;47.136;15.420;2024-02-15T06:00:57;5.70;;;1.50;;
82869;SDS011;72645;47.136;15.420;2024-02-15T06:03:30;3.90;;;1.60;;
82869;SDS011;72645;47.136;15.420;2024-02-15T06:06:02;2.80;;;1.90;;
82869;SDS011;72645;47.136;15.420;2024-02-15T06:08:36;5.10;;;2.40;;
82869;SDS011;72645;47.136;15.420;2024-02-15T06:11:07;3.90;;;1.70;;
82869;SDS011;72645;47.136;15.420;2024-02-15T06:13:38;5.20;;;1.80;;
82869;SDS011;72645;47.136;15.420;2024-02-15T06:16:09;2.90;;;1.70;;
82869;SDS011;72645;47.136;15.420;2024-02-15T06:18:40;2.90;;;1.40;;
82869;SDS011;72645;47.136;15.420;2024-02-15T06:21:11;4.20;;;1.70;;
82869;SDS011;72645;47.136;15.420;2024-02-15T06:23:42;3.90;;;3.00;;
82869;SDS011;72645;47.136;15.420;2024-02-15T06:26:13;3.50;;;2.00;;
82869;SDS011;72645;47.136;15.420;2024-02-15T06:28:44;4.30;;;1.60;;
82869;SDS011;72645;47.136;15.420;2024-02-15T06:31:33;3.20;;;1.90;;
82869;SDS011;72645;47.136;15.420;2024-02-15T06:34:21;2.80;;;1.90;;
82869;SDS011;72645;47.136;15.420;2024-02-15T06:37:10;2.80;;;2.10;;
82869;SDS011;72645;47.136;15.420;2024-02-15T06:40:19;4.10;;;1.80;;
82869;SDS011;72645;47.136;15.420;2024-02-15T06:42:50;7.50;;;2.50;;
82869;SDS011;72645;47.136;15.420;2024-02-15T06:45:21;3.30;;;1.50;;
82869;SDS011;72645;47.136;15.420;2024-02-15T06:47:52;4.10;;;2.00;;
82869;SDS011;72645;47.136;15.420;2024-02-15T06:50:23;3.50;;;2.30;;
82869;SDS011;72645;47.136;15.420;2024-02-15T06:52:54;6.20;;;2.70;;
82869;SDS011;72645;47.136;15.420;2024-02-15T06:55:26;6.60;;;1.90;;
82869;SDS011;72645;47.136;15.420;2024-02-15T06:57:57;5.00;;;2.20;;
82869;SDS011;72645;47.136;15.420;2024-02-15T07:00:28;4.50;;;2.10;;
82869;SDS011;72645;47.136;15.420;2024-02-15T07:02:59;6.70;;;2.60;;
82869;SDS011;72645;47.136;15.420;2024-02-15T07:05:30;8.00;;;2.00;;
82869;SDS011;72645;47.136;15.420;2024-02-15T07:08:02;3.90;;;2.00;;
82869;SDS011;72645;47.136;15.420;2024-02-15T07:10:34;4.40;;;1.90;;
82869;SDS011;72645;47.136;15.420;2024-02-15T07:13:06;3.40;;;2.10;;
82869;SDS011;72645;47.136;15.420;2024-02-15T07:15:38;2.80;;;1.70;;
82869;SDS011;72645;47.136;15.420;2024-02-15T07:18:10;6.20;;;2.20;;
82869;SDS011;72645;47.136;15.420;2024-02-15T07:20:46;4.30;;;1.70;;
82869;SDS011;72645;47.136;15.420;2024-02-15T07:23:18;4.80;;;1.60;;
82869;SDS011;72645;47.136;15.420;2024-02-15T07:25:49;3.20;;;2.00;;
82869;SDS011;72645;47.136;15.420;2024-02-15T07:28:21;4.90;;;1.90;;
82869;SDS011;72645;47.136;15.420;2024-02-15T07:30:54;5.10;;;1.90;;
82869;SDS011;72645;47.136;15.420;2024-02-15T07:33:25;5.20;;;2.50;;
82869;SDS011;72645;47.136;15.420;2024-02-15T07:35:57;7.20;;;2.80;;
82869;SDS011;72645;47.136;15.420;2024-02-15T07:38:28;4.10;;;3.00;;
82869;SDS011;72645;47.136;15.420;2024-02-15T07:41:02;4.50;;;2.40;;
82869;SDS011;72645;47.136;15.420;2024-02-15T07:43:33;4.10;;;2.10;;
82869;SDS011;72645;47.136;15.420;2024-02-15T07:46:04;5.10;;;1.70;;
82869;SDS011;72645;47.136;15.420;2024-02-15T07:48:35;5.20;;;2.80;;
82869;SDS011;72645;47.136;15.420;2024-02-15T07:51:07;6.60;;;3.00;;
82869;SDS011;72645;47.136;15.420;2024-02-15T07:53:40;5.60;;;2.80;;
82869;SDS011;72645;47.136;15.420;2024-02-15T07:56:12;6.80;;;2.50;;
82869;SDS011;72645;47.136;15.420;2024-02-15T07:58:44;8.80;;;2.50;;
82869;SDS011;72645;47.136;15.420;2024-02-15T08:01:21;3.90;;;2.30;;
82869;SDS011;72645;47.136;15.420;2024-02-15T08:03:53;6.60;;;2.60;;
82869;SDS011;72645;47.136;15.420;2024-02-15T08:06:24;4.40;;;2.50;;
82869;SDS011;72645;47.136;15.420;2024-02-15T08:08:57;2.60;;;1.50;;
82869;SDS011;72645;47.136;15.420;2024-02-15T08:11:28;2.70;;;1.50;;
82869;SDS011;72645;47.136;15.420;2024-02-15T08:13:59;2.50;;;1.30;;
82869;SDS011;72645;47.136;15.420;2024-02-15T08:16:30;5.30;;;1.90;;
82869;SDS011;72645;47.136;15.420;2024-02-15T08:19:02;4.40;;;1.80;;
82869;SDS011;72645;47.136;15.420;2024-02-15T08:21:35;2.90;;;1.80;;
82869;SDS011;72645;47.136;15.420;2024-02-15T08:24:09;4.60;;;2.30;;
82869;SDS011;72645;47.136;15.420;2024-02-15T08:26:40;6.90;;;2.20;;
82869;SDS011;72645;47.136;15.420;2024-02-15T08:29:11;8.30;;;3.30;;
82869;SDS011;72645;47.136;15.420;2024-02-15T08:31:43;4.10;;;2.20;;
82869;SDS011;72645;47.136;15.420;2024-02-15T08:34:17;6.10;;;3.50;;
82869;SDS011;72645;47.136;15.420;2024-02-15T08:36:48;5.10;;;3.10;;
82869;SDS011;72645;47.136;15.420;2024-02-15T08:39:19;5.30;;;2.90;;
82869;SDS011;72645;47.136;15.420;2024-02-15T08:41:51;5.30;;;2.90;;
82869;SDS011;72645;47.136;15.420;2024-02-15T08:44:22;4.90;;;3.40;;
82869;SDS011;72645;47.136;15.420;2024-02-15T08:46:53;6.10;;;2.20;;
82869;SDS011;72645;47.136;15.420;2024-02-15T08:49:24;6.70;;;2.40;;
82869;SDS011;72645;47.136;15.420;2024-02-15T08:51:59;5.50;;;2.60;;
82869;SDS011;72645;47.136;15.420;2024-02-15T08:54:30;3.30;;;1.90;;
82869;SDS011;72645;47.136;15.420;2024-02-15T08:57:01;6.70;;;3.10;;
82869;SDS011;72645;47.136;15.420;2024-02-15T08:59:32;4.50;;;1.70;;
82869;SDS011;72645;47.136;15.420;2024-02-15T09:02:03;9.70;;;2.40;;
82869;SDS011;72645;47.136;15.420;2024-02-15T09:04:34;4.40;;;2.70;;
82869;SDS011;72645;47.136;15.420;2024-02-15T09:07:07;6.40;;;2.40;;
82869;SDS011;72645;47.136;15.420;2024-02-15T09:09:38;7.00;;;3.30;;
82869;SDS011;72645;47.136;15.420;2024-02-15T09:12:09;11.10;;;4.70;;
82869;SDS011;72645;47.136;15.420;2024-02-15T09:14:41;10.20;;;5.50;;
82869;SDS011;72645;47.136;15.420;2024-02-15T09:17:12;7.40;;;3.10;;
82869;SDS011;72645;47.136;15.420;2024-02-15T09:19:46;6.20;;;3.00;;
82869;SDS011;72645;47.136;15.420;2024-02-15T09:22:18;8.40;;;3.10;;
82869;SDS011;72645;47.136;15.420;2024-02-15T09:24:49;7.90;;;2.70;;
82869;SDS011;72645;47.136;15.420;2024-02-15T09:27:19;11.90;;;3.60;;
82869;SDS011;72645;47.136;15.420;2024-02-15T09:29:50;7.60;;;3.00;;
82869;SDS011;72645;47.136;15.420;2024-02-15T09:32:23;8.00;;;2.30;;
82869;SDS011;72645;47.136;15.420;2024-02-15T09:34:54;5.50;;;2.60;;
82869;SDS011;72645;47.136;15.420;2024-02-15T09:37:25;6.00;;;2.30;;
82869;SDS011;72645;47.136;15.420;2024-02-15T09:39:57;5.30;;;2.20;;
82869;SDS011;72645;47.136;15.420;2024-02-15T09:42:34;5.50;;;2.40;;
82869;SDS011;72645;47.136;15.420;2024-02-15T09:45:07;5.70;;;2.40;;
82869;SDS011;72645;47.136;15.420;2024-02-15T09:47:41;9.10;;;3.30;;
82869;SDS011;72645;47.136;15.420;2024-02-15T09:50:13;7.20;;;2.50;;
82869;SDS011;72645;47.136;15.420;2024-02-15T09:52:45;7.00;;;2.20;;
82869;SDS011;72645;47.136;15.420;2024-02-15T09:55:18;10.10;;;2.70;;
82869;SDS011;72645;47.136;15.420;2024-02-15T09:57:51;6.60;;;2.20;;
82869;SDS011;72645;47.136;15.420;2024-02-15T10:00:24;6.20;;;2.50;;
82869;SDS011;72645;47.136;15.420;2024-02-15T10:02:55;8.60;;;2.20;;
82869;SDS011;72645;47.136;15.420;2024-02-15T10:05:29;6.30;;;2.00;;
82869;SDS011;72645;47.136;15.420;2024-02-15T10:08:00;3.50;;;1.70;;
82869;SDS011;72645;47.136;15.420;2024-02-15T10:10:31;9.00;;;2.30;;
82869;SDS011;72645;47.136;15.420;2024-02-15T10:13:03;4.10;;;1.80;;
82869;SDS011;72645;47.136;15.420;2024-02-15T10:15:35;5.30;;;2.00;;
82869;SDS011;72645;47.136;15.420;2024-02-15T10:18:08;5.50;;;2.20;;
82869;SDS011;72645;47.136;15.420;2024-02-15T10:20:42;4.90;;;1.80;;
82869;SDS011;72645;47.136;15.420;2024-02-15T10:23:27;4.80;;;2.00;;
82869;SDS011;72645;47.136;15.420;2024-02-15T10:25:57;4.30;;;1.80;;
82869;SDS011;72645;47.136;15.420;2024-02-15T10:28:30;3.40;;;1.40;;
82869;SDS011;72645;47.136;15.420;2024-02-15T10:31:01;5.50;;;1.70;;
82869;SDS011;72645;47.136;15.420;2024-02-15T10:33:41;3.40;;;1.40;;
82869;SDS011;72645;47.136;15.420;2024-02-15T10:36:12;5.70;;;1.90;;
82869;SDS011;72645;47.136;15.420;2024-02-15T10:38:45;5.80;;;1.70;;
82869;SDS011;72645;47.136;15.420;2024-02-15T10:41:17;6.50;;;2.30;;
82869;SDS011;72645;47.136;15.420;2024-02-15T10:43:49;5.70;;;2.30;;
82869;SDS011;72645;47.136;15.420;2024-02-15T10:46:21;6.60;;;1.70;;
82869;SDS011;72645;47.136;15.420;2024-02-15T10:48:53;4.20;;;1.70;;
82869;SDS011;72645;47.136;15.420;2024-02-15T10:51:25;9.90;;;3.40;;
82869;SDS011;72645;47.136;15.420;2024-02-15T10:53:57;7.90;;;2.40;;
82869;SDS011;72645;47.136;15.420;2024-02-15T10:56:35;5.30;;;1.80;;
82869;SDS011;72645;47.136;15.420;2024-02-15T10:59:16;3.30;;;1.70;;
82869;SDS011;72645;47.136;15.420;2024-02-15T11:01:49;4.40;;;2.00;;
82869;SDS011;72645;47.136;15.420;2024-02-15T11:04:23;5.50;;;2.10;;
82869;SDS011;72645;47.136;15.420;2024-02-15T11:07:00;9.00;;;4.30;;
82869;SDS011;72645;47.136;15.420;2024-02-15T11:09:34;3.20;;;1.40;;
82869;SDS011;72645;47.136;15.420;2024-02-15T11:12:07;3.20;;;1.50;;
82869;SDS011;72645;47.136;15.420;2024-02-15T11:14:40;5.10;;;1.40;;
82869;SDS011;72645;47.136;15.420;2024-02-15T11:17:40;3.90;;;1.50;;
82869;SDS011;72645;47.136;15.420;2024-02-15T11:20:46;4.90;;;1.10;;
82869;SDS011;72645;47.136;15.420;2024-02-15T11:23:27;4.70;;;1.00;;
82869;SDS011;72645;47.136;15.420;2024-02-15T11:26:04;4.30;;;1.40;;
82869;SDS011;72645;47.136;15.420;2024-02-15T11:28:39;4.00;;;1.10;;
82869;SDS011;72645;47.136;15.420;2024-02-15T11:34:43;1.80;;;1.00;;
82869;SDS011;72645;47.136;15.420;2024-02-15T11:40:27;5.20;;;1.90;;
82869;SDS011;72645;47.136;15.420;2024-02-15T11:46:29;3.50;;;2.00;;
82869;SDS011;72645;47.136;15.420;2024-02-15T11:49:02;4.80;;;1.60;;
82869;SDS011;72645;47.136;15.420;2024-02-15T11:51:35;4.50;;;2.10;;
82869;SDS011;72645;47.136;15.420;2024-02-15T11:54:12;4.20;;;1.80;;
82869;SDS011;72645;47.136;15.420;2024-02-15T11:56:53;4.80;;;1.60;;
82869;SDS011;72645;47.136;15.420;2024-02-15T12:02:44;6.50;;;2.20;;
82869;SDS011;72645;47.136;15.420;2024-02-15T12:05:33;4.70;;;1.60;;
82869;SDS011;72645;47.136;15.420;2024-02-15T12:08:22;7.30;;;3.20;;
82869;SDS011;72645;47.136;15.420;2024-02-15T12:11:13;10.60;;;3.50;;
82869;SDS011;72645;47.136;15.420;2024-02-15T12:14:02;7.50;;;2.70;;
82869;SDS011;72645;47.136;15.420;2024-02-15T12:16:59;12.90;;;3.40;;
82869;SDS011;72645;47.136;15.420;2024-02-15T12:19:49;11.60;;;3.60;;
82869;SDS011;72645;47.136;15.420;2024-02-15T12:22:25;11.80;;;3.60;;
82869;SDS011;72645;47.136;15.420;2024-02-15T12:25:00;15.00;;;4.40;;
82869;SDS011;72645;47.136;15.420;2024-02-15T12:27:39;11.20;;;4.60;;
82869;SDS011;72645;47.136;15.420;2024-02-15T12:30:14;11.90;;;4.30;;
82869;SDS011;72645;47.136;15.420;2024-02-15T12:32:48;10.80;;;4.30;;
82869;SDS011;72645;47.136;15.420;2024-02-15T12:35:22;9.60;;;4.20;;
82869;SDS011;72645;47.136;15.420;2024-02-15T12:38:02;14.10;;;3.90;;
82869;SDS011;72645;47.136;15.420;2024-02-15T12:40:34;8.40;;;3.50;;
82869;SDS011;72645;47.136;15.420;2024-02-15T12:43:09;11.40;;;4.00;;
82869;SDS011;72645;47.136;15.420;2024-02-15T12:45:41;10.90;;;3.50;;
82869;SDS011;72645;47.136;15.420;2024-02-15T12:48:12;13.00;;;4.40;;
82869;SDS011;72645;47.136;15.420;2024-02-15T12:50:44;11.10;;;3.70;;
82869;SDS011;72645;47.136;15.420;2024-02-15T12:53:21;12.00;;;3.80;;
82869;SDS011;72645;47.136;15.420;2024-02-15T12:55:55;13.70;;;4.40;;
82869;SDS011;72645;47.136;15.420;2024-02-15T12:58:27;7.70;;;3.70;;
82869;SDS011;72645;47.136;15.420;2024-02-15T13:00:58;12.10;;;3.70;;
82869;SDS011;72645;47.136;15.420;2024-02-15T13:03:29;13.40;;;3.60;;
82869;SDS011;72645;47.136;15.420;2024-02-15T13:06:01;11.80;;;3.30;;
82869;SDS011;72645;47.136;15.420;2024-02-15T13:08:32;10.60;;;3.70;;
82869;SDS011;72645;47.136;15.420;2024-02-15T13:11:04;12.20;;;4.30;;
82869;SDS011;72645;47.136;15.420;2024-02-15T13:13:37;16.20;;;5.40;;
82869;SDS011;72645;47.136;15.420;2024-02-15T13:16:10;8.50;;;3.10;;
82869;SDS011;72645;47.136;15.420;2024-02-15T13:18:42;12.30;;;4.80;;
82869;SDS011;72645;47.136;15.420;2024-02-15T13:21:15;8.00;;;3.30;;
82869;SDS011;72645;47.136;15.420;2024-02-15T13:23:46;10.30;;;3.70;;
82869;SDS011;72645;47.136;15.420;2024-02-15T13:26:18;9.10;;;3.30;;
82869;SDS011;72645;47.136;15.420;2024-02-15T13:28:51;7.30;;;3.00;;
82869;SDS011;72645;47.136;15.420;2024-02-15T13:31:22;10.40;;;3.40;;
82869;SDS011;72645;47.136;15.420;2024-02-15T13:33:55;7.30;;;2.90;;
82869;SDS011;72645;47.136;15.420;2024-02-15T13:36:26;11.50;;;3.90;;
82869;SDS011;72645;47.136;15.420;2024-02-15T13:38:58;9.50;;;3.70;;
82869;SDS011;72645;47.136;15.420;2024-02-15T13:41:32;6.10;;;3.60;;
82869;SDS011;72645;47.136;15.420;2024-02-15T13:44:03;7.00;;;3.30;;
82869;SDS011;72645;47.136;15.420;2024-02-15T13:46:34;4.60;;;3.80;;
82869;SDS011;72645;47.136;15.420;2024-02-15T13:49:07;7.10;;;2.60;;
82869;SDS011;72645;47.136;15.420;2024-02-15T13:51:56;7.40;;;2.70;;
82869;SDS011;72645;47.136;15.420;2024-02-15T13:54:30;8.50;;;3.10;;
82869;SDS011;72645;47.136;15.420;2024-02-15T13:57:01;5.10;;;3.00;;
82869;SDS011;72645;47.136;15.420;2024-02-15T13:59:34;5.40;;;2.80;;
82869;SDS011;72645;47.136;15.420;2024-02-15T14:02:05;11.80;;;2.70;;
82869;SDS011;72645;47.136;15.420;2024-02-15T14:04:36;11.50;;;3.90;;
82869;SDS011;72645;47.136;15.420;2024-02-15T14:07:07;9.20;;;3.50;;
82869;SDS011;72645;47.136;15.420;2024-02-15T14:09:38;7.00;;;3.10;;
82869;SDS011;72645;47.136;15.420;2024-02-15T14:12:09;10.50;;;2.40;;
82869;SDS011;72645;47.136;15.420;2024-02-15T14:14:41;7.00;;;2.70;;
82869;SDS011;72645;47.136;15.420;2024-02-15T14:17:12;7.50;;;2.80;;
82869;SDS011;72645;47.136;15.420;2024-02-15T14:19:43;5.30;;;2.60;;
82869;SDS011;72645;47.136;15.420;2024-02-15T14:22:14;6.20;;;3.80;;
82869;SDS011;72645;47.136;15.420;2024-02-15T14:24:45;7.80;;;2.80;;
82869;SDS011;72645;47.136;15.420;2024-02-15T14:27:16;6.50;;;2.20;;
82869;SDS011;72645;47.136;15.420;2024-02-15T14:29:47;11.20;;;2.90;;
82869;SDS011;72645;47.136;15.420;2024-02-15T14:32:32;9.20;;;3.00;;
82869;SDS011;72645;47.136;15.420;2024-02-15T14:35:21;7.50;;;3.10;;
82869;SDS011;72645;47.136;15.420;2024-02-15T14:37:52;9.10;;;3.10;;
82869;SDS011;72645;47.136;15.420;2024-02-15T14:40:24;4.80;;;2.50;;
82869;SDS011;72645;47.136;15.420;2024-02-15T14:43:12;9.20;;;2.70;;
82869;SDS011;72645;47.136;15.420;2024-02-15T14:45:46;6.20;;;2.40;;
82869;SDS011;72645;47.136;15.420;2024-02-15T14:48:19;9.50;;;2.50;;
82869;SDS011;72645;47.136;15.420;2024-02-15T14:50:52;5.20;;;2.40;;
82869;SDS011;72645;47.136;15.420;2024-02-15T14:53:24;6.20;;;2.40;;
82869;SDS011;72645;47.136;15.420;2024-02-15T14:55:56;8.00;;;2.30;;
82869;SDS011;72645;47.136;15.420;2024-02-15T14:58:27;11.20;;;3.00;;
82869;SDS011;72645;47.136;15.420;2024-02-15T15:00:58;9.80;;;2.30;;
82869;SDS011;72645;47.136;15.420;2024-02-15T15:03:37;7.00;;;2.50;;
82869;SDS011;72645;47.136;15.420;2024-02-15T15:06:08;5.10;;;2.10;;
82869;SDS011;72645;47.136;15.420;2024-02-15T15:08:57;5.90;;;2.30;;
82869;SDS011;72645;47.136;15.420;2024-02-15T15:14:33;4.70;;;2.00;;
82869;SDS011;72645;47.136;15.420;2024-02-15T15:17:05;13.80;;;2.70;;
82869;SDS011;72645;47.136;15.420;2024-02-15T15:19:36;12.50;;;2.50;;
82869;SDS011;72645;47.136;15.420;2024-02-15T15:22:07;11.50;;;3.00;;
82869;SDS011;72645;47.136;15.420;2024-02-15T15:24:38;6.30;;;2.00;;